sensor_id;sensor_type;location;lat;lon;timestamp;temperature;humidity
68801;SHT31;55784;50.734;7.086;2022-11-02T00:00:55;12.93;75.32
68801;SHT31;55784;50.734;7.086;2022-11-02T00:03:21;12.98;75.31
68801;SHT31;55784;50.734;7.086;2022-11-02T00:05:47;13.00;75.24
68801;SHT31;55784;50.734;7.086;2022-11-02T00:08:12;13.03;75.14
68801;SHT31;55784;50.734;7.086;2022-11-02T00:10:37;12.98;75.27
68801;SHT31;55784;50.734;7.086;2022-11-02T00:13:03;13.00;75.24
68801;SHT31;55784;50.734;7.086;2022-11-02T00:15:31;13.01;75.22
68801;SHT31;55784;50.734;7.086;2022-11-02T00:18:01;13.04;75.19
68801;SHT31;55784;50.734;7.086;2022-11-02T00:20:27;13.12;74.91
68801;SHT31;55784;50.734;7.086;2022-11-02T00:22:55;13.11;74.84
68801;SHT31;55784;50.734;7.086;2022-11-02T00:25:22;13.18;74.87
68801;SHT31;55784;50.734;7.086;2022-11-02T00:27:47;13.17;74.77
68801;SHT31;55784;50.734;7.086;2022-11-02T00:30:13;13.17;74.75
68801;SHT31;55784;50.734;7.086;2022-11-02T00:32:39;13.17;74.74
68801;SHT31;55784;50.734;7.086;2022-11-02T00:35:05;13.12;74.85
68801;SHT31;55784;50.734;7.086;2022-11-02T00:37:30;13.08;75.17
68801;SHT31;55784;50.734;7.086;2022-11-02T00:39:56;13.01;75.42
68801;SHT31;55784;50.734;7.086;2022-11-02T00:42:21;13.07;75.31
68801;SHT31;55784;50.734;7.086;2022-11-02T00:44:46;13.08;75.11
68801;SHT31;55784;50.734;7.086;2022-11-02T00:47:12;13.10;75.32
68801;SHT31;55784;50.734;7.086;2022-11-02T00:49:37;13.07;75.22
68801;SHT31;55784;50.734;7.086;2022-11-02T00:52:03;13.07;75.36
68801;SHT31;55784;50.734;7.086;2022-11-02T00:54:28;13.05;75.45
68801;SHT31;55784;50.734;7.086;2022-11-02T00:56:54;13.00;75.79
68801;SHT31;55784;50.734;7.086;2022-11-02T00:59:19;12.98;75.72
68801;SHT31;55784;50.734;7.086;2022-11-02T01:01:44;13.10;75.55
68801;SHT31;55784;50.734;7.086;2022-11-02T01:04:15;13.08;75.46
68801;SHT31;55784;50.734;7.086;2022-11-02T01:06:41;13.10;75.49
68801;SHT31;55784;50.734;7.086;2022-11-02T01:09:08;13.14;75.49
68801;SHT31;55784;50.734;7.086;2022-11-02T01:11:33;13.15;75.43
68801;SHT31;55784;50.734;7.086;2022-11-02T01:13:59;13.18;75.35
68801;SHT31;55784;50.734;7.086;2022-11-02T01:16:24;13.19;75.36
68801;SHT31;55784;50.734;7.086;2022-11-02T01:18:51;13.21;75.28
68801;SHT31;55784;50.734;7.086;2022-11-02T01:21:17;13.17;75.51
68801;SHT31;55784;50.734;7.086;2022-11-02T01:23:42;13.19;75.46
68801;SHT31;55784;50.734;7.086;2022-11-02T01:26:08;13.24;75.37
68801;SHT31;55784;50.734;7.086;2022-11-02T01:28:34;13.21;75.38
68801;SHT31;55784;50.734;7.086;2022-11-02T01:30:59;13.24;75.25
68801;SHT31;55784;50.734;7.086;2022-11-02T01:33:26;13.22;75.33
68801;SHT31;55784;50.734;7.086;2022-11-02T01:35:52;13.22;75.45
68801;SHT31;55784;50.734;7.086;2022-11-02T01:38:18;13.22;75.52
68801;SHT31;55784;50.734;7.086;2022-11-02T01:40:43;13.27;75.46
68801;SHT31;55784;50.734;7.086;2022-11-02T01:45:55;13.29;75.32
68801;SHT31;55784;50.734;7.086;2022-11-02T01:49:00;13.27;75.48
68801;SHT31;55784;50.734;7.086;2022-11-02T01:51:22;13.27;75.58
68801;SHT31;55784;50.734;7.086;2022-11-02T01:53:50;13.24;75.62
68801;SHT31;55784;50.734;7.086;2022-11-02T01:56:39;13.07;76.23
68801;SHT31;55784;50.734;7.086;2022-11-02T02:03:20;12.94;76.74
68801;SHT31;55784;50.734;7.086;2022-11-02T02:06:21;12.83;77.26
68801;SHT31;55784;50.734;7.086;2022-11-02T02:09:13;12.67;77.90
68801;SHT31;55784;50.734;7.086;2022-11-02T02:12:10;12.56;78.37
68801;SHT31;55784;50.734;7.086;2022-11-02T02:18:43;12.56;78.46
68801;SHT31;55784;50.734;7.086;2022-11-02T02:31:15;12.40;79.29
68801;SHT31;55784;50.734;7.086;2022-11-02T02:44:56;12.03;80.89
68801;SHT31;55784;50.734;7.086;2022-11-02T03:37:50;11.61;82.76
68801;SHT31;55784;50.734;7.086;2022-11-02T03:41:27;11.57;82.91
68801;SHT31;55784;50.734;7.086;2022-11-02T03:44:46;11.50;82.99
68801;SHT31;55784;50.734;7.086;2022-11-02T03:47:21;11.51;83.05
68801;SHT31;55784;50.734;7.086;2022-11-02T03:50:20;11.47;83.26
68801;SHT31;55784;50.734;7.086;2022-11-02T03:56:54;11.35;83.62
68801;SHT31;55784;50.734;7.086;2022-11-02T04:04:02;11.28;83.98
68801;SHT31;55784;50.734;7.086;2022-11-02T04:22:42;10.87;85.40
68801;SHT31;55784;50.734;7.086;2022-11-02T04:28:36;10.90;85.44
68801;SHT31;55784;50.734;7.086;2022-11-02T04:31:33;10.93;85.37
68801;SHT31;55784;50.734;7.086;2022-11-02T04:34:38;10.93;85.43
68801;SHT31;55784;50.734;7.086;2022-11-02T04:40:46;10.92;85.24
68801;SHT31;55784;50.734;7.086;2022-11-02T04:44:07;10.97;85.22
68801;SHT31;55784;50.734;7.086;2022-11-02T04:47:18;10.92;85.37
68801;SHT31;55784;50.734;7.086;2022-11-02T04:50:59;10.93;85.19
68801;SHT31;55784;50.734;7.086;2022-11-02T04:53:59;10.90;85.15
68801;SHT31;55784;50.734;7.086;2022-11-02T04:59:19;10.93;84.87
68801;SHT31;55784;50.734;7.086;2022-11-02T05:02:11;10.90;84.82
68801;SHT31;55784;50.734;7.086;2022-11-02T05:08:01;10.89;84.68
68801;SHT31;55784;50.734;7.086;2022-11-02T05:11:06;10.95;84.51
68801;SHT31;55784;50.734;7.086;2022-11-02T05:20:39;10.83;84.20
68801;SHT31;55784;50.734;7.086;2022-11-02T05:30:47;10.77;83.94
68801;SHT31;55784;50.734;7.086;2022-11-02T05:34:08;10.79;83.96
68801;SHT31;55784;50.734;7.086;2022-11-02T05:36:55;10.76;83.84
68801;SHT31;55784;50.734;7.086;2022-11-02T05:39:39;10.70;83.97
68801;SHT31;55784;50.734;7.086;2022-11-02T05:49:08;10.46;84.52
68801;SHT31;55784;50.734;7.086;2022-11-02T05:52:06;10.53;84.21
68801;SHT31;55784;50.734;7.086;2022-11-02T05:54:56;10.52;84.25
68801;SHT31;55784;50.734;7.086;2022-11-02T06:01:52;10.52;84.06
68801;SHT31;55784;50.734;7.086;2022-11-02T06:04:25;10.60;83.86
68801;SHT31;55784;50.734;7.086;2022-11-02T06:06:59;10.53;84.00
68801;SHT31;55784;50.734;7.086;2022-11-02T06:09:51;10.53;84.18
68801;SHT31;55784;50.734;7.086;2022-11-02T06:12:22;10.59;84.09
68801;SHT31;55784;50.734;7.086;2022-11-02T06:15:13;10.66;83.67
68801;SHT31;55784;50.734;7.086;2022-11-02T06:17:53;10.67;83.58
68801;SHT31;55784;50.734;7.086;2022-11-02T06:20:29;10.66;83.48
68801;SHT31;55784;50.734;7.086;2022-11-02T06:23:21;10.73;83.35
68801;SHT31;55784;50.734;7.086;2022-11-02T06:26:02;10.80;83.01
68801;SHT31;55784;50.734;7.086;2022-11-02T06:28:33;10.96;82.58
68801;SHT31;55784;50.734;7.086;2022-11-02T06:31:08;11.03;82.13
68801;SHT31;55784;50.734;7.086;2022-11-02T06:33:36;11.06;82.04
68801;SHT31;55784;50.734;7.086;2022-11-02T06:36:02;11.07;82.02
68801;SHT31;55784;50.734;7.086;2022-11-02T06:38:30;11.09;81.99
68801;SHT31;55784;50.734;7.086;2022-11-02T06:41:01;11.14;81.77
68801;SHT31;55784;50.734;7.086;2022-11-02T06:43:31;11.23;81.51
68801;SHT31;55784;50.734;7.086;2022-11-02T06:45:57;11.30;81.33
68801;SHT31;55784;50.734;7.086;2022-11-02T06:48:24;11.32;81.22
68801;SHT31;55784;50.734;7.086;2022-11-02T06:51:05;11.34;81.23
68801;SHT31;55784;50.734;7.086;2022-11-02T06:54:06;11.38;81.13
68801;SHT31;55784;50.734;7.086;2022-11-02T06:56:31;11.34;81.19
68801;SHT31;55784;50.734;7.086;2022-11-02T06:59:07;11.31;81.28
68801;SHT31;55784;50.734;7.086;2022-11-02T07:01:33;11.28;81.34
68801;SHT31;55784;50.734;7.086;2022-11-02T07:03:59;11.32;81.42
68801;SHT31;55784;50.734;7.086;2022-11-02T07:06:25;11.38;81.29
68801;SHT31;55784;50.734;7.086;2022-11-02T07:08:51;11.47;80.92
68801;SHT31;55784;50.734;7.086;2022-11-02T07:11:16;11.57;80.65
68801;SHT31;55784;50.734;7.086;2022-11-02T07:13:51;11.60;80.48
68801;SHT31;55784;50.734;7.086;2022-11-02T07:16:26;11.61;80.45
68801;SHT31;55784;50.734;7.086;2022-11-02T07:18:54;11.62;80.30
68801;SHT31;55784;50.734;7.086;2022-11-02T07:21:20;11.57;80.46
68801;SHT31;55784;50.734;7.086;2022-11-02T07:23:45;11.54;80.60
68801;SHT31;55784;50.734;7.086;2022-11-02T07:26:11;11.50;80.77
68801;SHT31;55784;50.734;7.086;2022-11-02T07:28:37;11.48;80.89
68801;SHT31;55784;50.734;7.086;2022-11-02T07:31:05;11.51;80.68
68801;SHT31;55784;50.734;7.086;2022-11-02T07:33:31;11.51;80.71
68801;SHT31;55784;50.734;7.086;2022-11-02T07:35:56;11.54;80.68
68801;SHT31;55784;50.734;7.086;2022-11-02T07:38:21;11.60;80.39
68801;SHT31;55784;50.734;7.086;2022-11-02T07:40:48;11.67;80.29
68801;SHT31;55784;50.734;7.086;2022-11-02T07:43:15;11.78;79.71
68801;SHT31;55784;50.734;7.086;2022-11-02T07:45:40;11.81;79.64
68801;SHT31;55784;50.734;7.086;2022-11-02T07:48:05;11.85;79.61
68801;SHT31;55784;50.734;7.086;2022-11-02T07:50:31;11.88;79.53
68801;SHT31;55784;50.734;7.086;2022-11-02T07:52:56;11.93;79.30
68801;SHT31;55784;50.734;7.086;2022-11-02T07:55:24;11.98;78.91
68801;SHT31;55784;50.734;7.086;2022-11-02T07:57:58;12.05;78.25
68801;SHT31;55784;50.734;7.086;2022-11-02T08:00:36;12.11;77.46
68801;SHT31;55784;50.734;7.086;2022-11-02T08:03:03;12.25;77.02
68801;SHT31;55784;50.734;7.086;2022-11-02T08:05:29;12.30;76.35
68801;SHT31;55784;50.734;7.086;2022-11-02T08:07:58;12.40;75.71
68801;SHT31;55784;50.734;7.086;2022-11-02T08:10:24;12.46;75.78
68801;SHT31;55784;50.734;7.086;2022-11-02T08:12:50;12.53;75.92
68801;SHT31;55784;50.734;7.086;2022-11-02T08:15:15;12.61;74.94
68801;SHT31;55784;50.734;7.086;2022-11-02T08:17:40;12.61;74.93
68801;SHT31;55784;50.734;7.086;2022-11-02T08:20:06;12.64;74.91
68801;SHT31;55784;50.734;7.086;2022-11-02T08:22:36;12.72;74.95
68801;SHT31;55784;50.734;7.086;2022-11-02T08:25:01;12.81;74.01
68801;SHT31;55784;50.734;7.086;2022-11-02T08:27:27;12.90;73.50
68801;SHT31;55784;50.734;7.086;2022-11-02T08:29:52;12.97;73.29
68801;SHT31;55784;50.734;7.086;2022-11-02T08:32:17;13.04;73.19
68801;SHT31;55784;50.734;7.086;2022-11-02T08:34:43;13.14;72.75
68801;SHT31;55784;50.734;7.086;2022-11-02T08:37:08;13.27;72.30
68801;SHT31;55784;50.734;7.086;2022-11-02T08:39:33;13.41;72.37
68801;SHT31;55784;50.734;7.086;2022-11-02T08:41:59;13.58;71.78
68801;SHT31;55784;50.734;7.086;2022-11-02T08:44:24;13.62;70.62
68801;SHT31;55784;50.734;7.086;2022-11-02T08:46:49;13.61;71.08
68801;SHT31;55784;50.734;7.086;2022-11-02T08:49:15;13.63;72.03
68801;SHT31;55784;50.734;7.086;2022-11-02T08:51:43;13.62;70.79
68801;SHT31;55784;50.734;7.086;2022-11-02T08:54:09;13.79;70.64
68801;SHT31;55784;50.734;7.086;2022-11-02T08:56:34;13.99;70.00
68801;SHT31;55784;50.734;7.086;2022-11-02T08:58:59;14.03;69.40
68801;SHT31;55784;50.734;7.086;2022-11-02T09:01:25;14.09;69.93
68801;SHT31;55784;50.734;7.086;2022-11-02T09:03:50;13.92;69.48
68801;SHT31;55784;50.734;7.086;2022-11-02T09:06:16;13.87;70.30
68801;SHT31;55784;50.734;7.086;2022-11-02T09:08:41;13.92;70.18
68801;SHT31;55784;50.734;7.086;2022-11-02T09:11:06;13.82;69.79
68801;SHT31;55784;50.734;7.086;2022-11-02T09:13:32;13.98;70.15
68801;SHT31;55784;50.734;7.086;2022-11-02T09:15:58;14.00;69.36
68801;SHT31;55784;50.734;7.086;2022-11-02T09:18:26;14.09;69.71
68801;SHT31;55784;50.734;7.086;2022-11-02T09:20:52;14.19;69.32
68801;SHT31;55784;50.734;7.086;2022-11-02T09:23:19;14.14;69.26
68801;SHT31;55784;50.734;7.086;2022-11-02T09:25:45;14.20;68.79
68801;SHT31;55784;50.734;7.086;2022-11-02T09:28:17;14.16;68.96
68801;SHT31;55784;50.734;7.086;2022-11-02T09:30:43;14.29;68.64
68801;SHT31;55784;50.734;7.086;2022-11-02T09:33:26;14.05;68.48
68801;SHT31;55784;50.734;7.086;2022-11-02T09:35:53;14.05;68.40
68801;SHT31;55784;50.734;7.086;2022-11-02T09:39:06;14.16;68.77
68801;SHT31;55784;50.734;7.086;2022-11-02T09:42:08;14.20;68.77
68801;SHT31;55784;50.734;7.086;2022-11-02T09:47:56;14.14;67.70
68801;SHT31;55784;50.734;7.086;2022-11-02T09:50:37;14.20;68.02
68801;SHT31;55784;50.734;7.086;2022-11-02T09:53:06;14.26;67.75
68801;SHT31;55784;50.734;7.086;2022-11-02T09:55:35;14.34;67.84
68801;SHT31;55784;50.734;7.086;2022-11-02T09:58:06;14.31;66.22
68801;SHT31;55784;50.734;7.086;2022-11-02T10:00:39;14.40;66.23
68801;SHT31;55784;50.734;7.086;2022-11-02T10:03:27;14.50;65.64
68801;SHT31;55784;50.734;7.086;2022-11-02T10:05:59;14.44;65.07
68801;SHT31;55784;50.734;7.086;2022-11-02T10:08:50;14.57;65.42
68801;SHT31;55784;50.734;7.086;2022-11-02T10:11:44;14.67;64.20
68801;SHT31;55784;50.734;7.086;2022-11-02T10:14:17;14.68;63.73
68801;SHT31;55784;50.734;7.086;2022-11-02T10:19:29;14.65;63.41
68801;SHT31;55784;50.734;7.086;2022-11-02T10:21:57;14.77;62.92
68801;SHT31;55784;50.734;7.086;2022-11-02T10:24:28;14.64;62.48
68801;SHT31;55784;50.734;7.086;2022-11-02T10:26:59;14.70;63.00
68801;SHT31;55784;50.734;7.086;2022-11-02T10:32:10;14.95;62.83
68801;SHT31;55784;50.734;7.086;2022-11-02T10:34:37;15.05;62.35
68801;SHT31;55784;50.734;7.086;2022-11-02T10:37:17;15.16;61.07
68801;SHT31;55784;50.734;7.086;2022-11-02T10:39:50;15.09;59.74
68801;SHT31;55784;50.734;7.086;2022-11-02T10:53:41;15.16;59.77
68801;SHT31;55784;50.734;7.086;2022-11-02T10:56:29;15.25;59.83
68801;SHT31;55784;50.734;7.086;2022-11-02T11:01:25;15.45;59.69
68801;SHT31;55784;50.734;7.086;2022-11-02T11:04:05;15.52;59.11
68801;SHT31;55784;50.734;7.086;2022-11-02T11:06:35;15.71;59.34
68801;SHT31;55784;50.734;7.086;2022-11-02T11:09:22;15.55;59.25
68801;SHT31;55784;50.734;7.086;2022-11-02T11:11:58;15.69;59.12
68801;SHT31;55784;50.734;7.086;2022-11-02T11:14:28;15.74;58.60
68801;SHT31;55784;50.734;7.086;2022-11-02T11:16:59;15.77;58.77
68801;SHT31;55784;50.734;7.086;2022-11-02T11:19:39;15.66;58.70
68801;SHT31;55784;50.734;7.086;2022-11-02T11:24:51;15.86;58.85
68801;SHT31;55784;50.734;7.086;2022-11-02T11:27:18;15.79;58.86
68801;SHT31;55784;50.734;7.086;2022-11-02T11:29:47;15.71;59.05
68801;SHT31;55784;50.734;7.086;2022-11-02T11:32:28;15.79;59.23
68801;SHT31;55784;50.734;7.086;2022-11-02T11:35:01;15.85;59.37
68801;SHT31;55784;50.734;7.086;2022-11-02T11:37:28;15.96;59.15
68801;SHT31;55784;50.734;7.086;2022-11-02T11:40:02;16.06;58.62
68801;SHT31;55784;50.734;7.086;2022-11-02T11:42:32;16.27;58.35
68801;SHT31;55784;50.734;7.086;2022-11-02T11:45:05;16.52;57.98
68801;SHT31;55784;50.734;7.086;2022-11-02T11:47:39;16.67;57.14
68801;SHT31;55784;50.734;7.086;2022-11-02T11:50:13;16.65;57.07
68801;SHT31;55784;50.734;7.086;2022-11-02T11:52:40;16.65;57.34
68801;SHT31;55784;50.734;7.086;2022-11-02T11:55:26;16.59;57.56
68801;SHT31;55784;50.734;7.086;2022-11-02T12:03:55;16.32;57.86
68801;SHT31;55784;50.734;7.086;2022-11-02T12:09:27;16.25;58.27
68801;SHT31;55784;50.734;7.086;2022-11-02T12:18:22;16.47;56.87
68801;SHT31;55784;50.734;7.086;2022-11-02T12:20:49;16.64;56.84
68801;SHT31;55784;50.734;7.086;2022-11-02T12:29:15;17.01;52.93
68801;SHT31;55784;50.734;7.086;2022-11-02T12:31:57;17.15;52.62
68801;SHT31;55784;50.734;7.086;2022-11-02T12:34:51;17.24;52.04
68801;SHT31;55784;50.734;7.086;2022-11-02T12:37:43;17.29;52.43
68801;SHT31;55784;50.734;7.086;2022-11-02T12:40:29;17.19;52.89
68801;SHT31;55784;50.734;7.086;2022-11-02T12:45:51;16.95;53.35
68801;SHT31;55784;50.734;7.086;2022-11-02T12:48:46;16.88;53.68
68801;SHT31;55784;50.734;7.086;2022-11-02T12:51:26;16.82;53.93
68801;SHT31;55784;50.734;7.086;2022-11-02T12:53:56;16.88;53.96
68801;SHT31;55784;50.734;7.086;2022-11-02T12:56:43;16.92;53.93
68801;SHT31;55784;50.734;7.086;2022-11-02T12:59:25;16.67;54.79
68801;SHT31;55784;50.734;7.086;2022-11-02T13:01:57;16.62;55.45
68801;SHT31;55784;50.734;7.086;2022-11-02T13:04:56;16.65;55.45
68801;SHT31;55784;50.734;7.086;2022-11-02T13:07:36;16.72;55.57
68801;SHT31;55784;50.734;7.086;2022-11-02T13:10:14;16.73;55.36
68801;SHT31;55784;50.734;7.086;2022-11-02T13:12:42;16.79;55.40
68801;SHT31;55784;50.734;7.086;2022-11-02T13:15:14;16.78;55.61
68801;SHT31;55784;50.734;7.086;2022-11-02T13:17:48;17.01;55.21
68801;SHT31;55784;50.734;7.086;2022-11-02T13:20:17;17.12;54.63
68801;SHT31;55784;50.734;7.086;2022-11-02T13:22:47;17.24;54.58
68801;SHT31;55784;50.734;7.086;2022-11-02T13:25:21;17.27;54.05
68801;SHT31;55784;50.734;7.086;2022-11-02T13:27:56;17.18;53.52
68801;SHT31;55784;50.734;7.086;2022-11-02T14:11:24;16.06;55.01
68801;SHT31;55784;50.734;7.086;2022-11-02T14:16:45;15.98;55.55
68801;SHT31;55784;50.734;7.086;2022-11-02T14:20:14;15.94;56.49
68801;SHT31;55784;50.734;7.086;2022-11-02T14:26:56;15.82;55.12
68801;SHT31;55784;50.734;7.086;2022-11-02T14:33:27;15.70;56.05
68801;SHT31;55784;50.734;7.086;2022-11-02T14:48:19;15.52;57.98
68801;SHT31;55784;50.734;7.086;2022-11-02T14:54:04;15.35;58.42
68801;SHT31;55784;50.734;7.086;2022-11-02T15:08:27;14.85;59.50
68801;SHT31;55784;50.734;7.086;2022-11-02T15:10:55;14.77;60.14
68801;SHT31;55784;50.734;7.086;2022-11-02T15:13:23;14.70;59.65
68801;SHT31;55784;50.734;7.086;2022-11-02T15:23:56;14.26;61.41
68801;SHT31;55784;50.734;7.086;2022-11-02T15:26:32;14.19;61.84
68801;SHT31;55784;50.734;7.086;2022-11-02T15:29:01;14.12;62.44
68801;SHT31;55784;50.734;7.086;2022-11-02T15:31:29;13.99;62.88
68801;SHT31;55784;50.734;7.086;2022-11-02T15:33:59;13.95;62.75
68801;SHT31;55784;50.734;7.086;2022-11-02T15:36:35;13.86;63.94
68801;SHT31;55784;50.734;7.086;2022-11-02T15:39:05;13.79;63.73
68801;SHT31;55784;50.734;7.086;2022-11-02T15:41:44;13.68;64.79
68801;SHT31;55784;50.734;7.086;2022-11-02T15:50:05;13.57;64.54
68801;SHT31;55784;50.734;7.086;2022-11-02T15:59:01;13.41;64.91
68801;SHT31;55784;50.734;7.086;2022-11-02T16:01:29;13.35;64.55
68801;SHT31;55784;50.734;7.086;2022-11-02T16:03:59;13.34;64.58
68801;SHT31;55784;50.734;7.086;2022-11-02T16:06:40;13.31;64.63
68801;SHT31;55784;50.734;7.086;2022-11-02T16:15:17;13.07;65.11
68801;SHT31;55784;50.734;7.086;2022-11-02T16:17:47;12.98;65.30
68801;SHT31;55784;50.734;7.086;2022-11-02T16:20:19;12.94;65.76
68801;SHT31;55784;50.734;7.086;2022-11-02T16:22:50;12.86;66.08
68801;SHT31;55784;50.734;7.086;2022-11-02T16:28:12;12.70;66.79
68801;SHT31;55784;50.734;7.086;2022-11-02T16:30:40;12.67;67.10
68801;SHT31;55784;50.734;7.086;2022-11-02T16:33:09;12.66;66.94
68801;SHT31;55784;50.734;7.086;2022-11-02T16:35:35;12.57;67.13
68801;SHT31;55784;50.734;7.086;2022-11-02T16:38:01;12.52;67.60
68801;SHT31;55784;50.734;7.086;2022-11-02T16:40:30;12.47;67.68
68801;SHT31;55784;50.734;7.086;2022-11-02T16:43:01;12.43;67.95
68801;SHT31;55784;50.734;7.086;2022-11-02T16:45:32;12.36;68.08
68801;SHT31;55784;50.734;7.086;2022-11-02T16:47:59;12.29;68.16
68801;SHT31;55784;50.734;7.086;2022-11-02T16:50:25;12.30;68.13
68801;SHT31;55784;50.734;7.086;2022-11-02T16:52:56;12.23;68.38
68801;SHT31;55784;50.734;7.086;2022-11-02T16:55:40;12.12;68.74
68801;SHT31;55784;50.734;7.086;2022-11-02T16:58:15;12.05;69.03
68801;SHT31;55784;50.734;7.086;2022-11-02T17:00:52;11.98;69.39
68801;SHT31;55784;50.734;7.086;2022-11-02T17:03:19;11.91;69.53
68801;SHT31;55784;50.734;7.086;2022-11-02T17:05:47;11.86;69.66
68801;SHT31;55784;50.734;7.086;2022-11-02T17:08:27;11.81;69.95
68801;SHT31;55784;50.734;7.086;2022-11-02T17:10:55;11.70;70.06
68801;SHT31;55784;50.734;7.086;2022-11-02T17:13:22;11.68;70.35
68801;SHT31;55784;50.734;7.086;2022-11-02T17:15:50;11.65;70.61
68801;SHT31;55784;50.734;7.086;2022-11-02T17:20:44;11.64;70.72
68801;SHT31;55784;50.734;7.086;2022-11-02T17:23:30;11.62;70.75
68801;SHT31;55784;50.734;7.086;2022-11-02T17:28:52;11.50;71.13
68801;SHT31;55784;50.734;7.086;2022-11-02T17:31:22;11.42;71.50
68801;SHT31;55784;50.734;7.086;2022-11-02T17:33:49;11.45;71.53
68801;SHT31;55784;50.734;7.086;2022-11-02T17:36:15;11.51;71.47
68801;SHT31;55784;50.734;7.086;2022-11-02T17:38:41;11.54;71.42
68801;SHT31;55784;50.734;7.086;2022-11-02T17:41:17;11.44;71.72
68801;SHT31;55784;50.734;7.086;2022-11-02T17:44:02;11.41;72.06
68801;SHT31;55784;50.734;7.086;2022-11-02T17:46:28;11.38;72.23
68801;SHT31;55784;50.734;7.086;2022-11-02T17:48:53;11.42;72.27
68801;SHT31;55784;50.734;7.086;2022-11-02T17:51:20;11.47;72.18
68801;SHT31;55784;50.734;7.086;2022-11-02T17:53:48;11.44;72.32
68801;SHT31;55784;50.734;7.086;2022-11-02T17:56:13;11.45;72.52
68801;SHT31;55784;50.734;7.086;2022-11-02T17:58:39;11.35;72.76
68801;SHT31;55784;50.734;7.086;2022-11-02T18:01:04;11.31;72.99
68801;SHT31;55784;50.734;7.086;2022-11-02T18:03:30;11.28;73.10
68801;SHT31;55784;50.734;7.086;2022-11-02T18:05:56;11.21;73.16
68801;SHT31;55784;50.734;7.086;2022-11-02T18:08:21;11.19;73.51
68801;SHT31;55784;50.734;7.086;2022-11-02T18:10:49;11.11;73.71
68801;SHT31;55784;50.734;7.086;2022-11-02T18:13:20;11.10;74.00
68801;SHT31;55784;50.734;7.086;2022-11-02T18:15:46;11.11;74.01
68801;SHT31;55784;50.734;7.086;2022-11-02T18:18:12;11.01;74.33
68801;SHT31;55784;50.734;7.086;2022-11-02T18:20:38;10.95;74.46
68801;SHT31;55784;50.734;7.086;2022-11-02T18:23:05;10.96;74.74
68801;SHT31;55784;50.734;7.086;2022-11-02T18:25:32;10.92;74.93
68801;SHT31;55784;50.734;7.086;2022-11-02T18:28:13;10.83;74.98
68801;SHT31;55784;50.734;7.086;2022-11-02T18:33:18;10.72;75.58
68801;SHT31;55784;50.734;7.086;2022-11-02T18:35:43;10.66;75.88
68801;SHT31;55784;50.734;7.086;2022-11-02T18:38:13;10.62;76.06
68801;SHT31;55784;50.734;7.086;2022-11-02T18:40:39;10.62;76.32
68801;SHT31;55784;50.734;7.086;2022-11-02T18:43:22;10.60;76.32
68801;SHT31;55784;50.734;7.086;2022-11-02T18:45:51;10.56;76.47
68801;SHT31;55784;50.734;7.086;2022-11-02T18:48:16;10.52;76.77
68801;SHT31;55784;50.734;7.086;2022-11-02T18:50:52;10.48;76.74
68801;SHT31;55784;50.734;7.086;2022-11-02T18:53:25;10.48;76.89
68801;SHT31;55784;50.734;7.086;2022-11-02T18:55:50;10.50;77.06
68801;SHT31;55784;50.734;7.086;2022-11-02T18:58:15;10.52;77.17
68801;SHT31;55784;50.734;7.086;2022-11-02T19:00:41;10.48;77.26
68801;SHT31;55784;50.734;7.086;2022-11-02T19:03:06;10.42;77.27
68801;SHT31;55784;50.734;7.086;2022-11-02T19:05:39;10.44;77.38
68801;SHT31;55784;50.734;7.086;2022-11-02T19:08:23;10.49;77.30
68801;SHT31;55784;50.734;7.086;2022-11-02T21:03:28;10.34;77.64
68801;SHT31;55784;50.734;7.086;2022-11-02T21:05:53;10.38;77.64
68801;SHT31;55784;50.734;7.086;2022-11-02T21:08:32;10.35;77.66
68801;SHT31;55784;50.734;7.086;2022-11-02T21:10:59;10.34;77.73
68801;SHT31;55784;50.734;7.086;2022-11-02T21:13:25;10.29;77.80
68801;SHT31;55784;50.734;7.086;2022-11-02T21:16:25;10.26;78.07
68801;SHT31;55784;50.734;7.086;2022-11-02T21:18:51;10.29;78.82
68801;SHT31;55784;50.734;7.086;2022-11-02T21:21:18;10.28;77.99
68801;SHT31;55784;50.734;7.086;2022-11-02T21:23:47;10.25;78.22
68801;SHT31;55784;50.734;7.086;2022-11-02T21:26:13;10.26;78.28
68801;SHT31;55784;50.734;7.086;2022-11-02T21:34:38;10.26;78.31
68801;SHT31;55784;50.734;7.086;2022-11-02T21:37:08;10.21;78.38
68801;SHT31;55784;50.734;7.086;2022-11-02T21:39:36;10.14;78.52
68801;SHT31;55784;50.734;7.086;2022-11-02T21:42:02;10.14;78.76
68801;SHT31;55784;50.734;7.086;2022-11-02T21:47:53;10.15;78.85
68801;SHT31;55784;50.734;7.086;2022-11-02T21:50:19;10.06;79.02
68801;SHT31;55784;50.734;7.086;2022-11-02T21:52:44;10.01;79.18
68801;SHT31;55784;50.734;7.086;2022-11-02T21:55:10;9.95;79.32
68801;SHT31;55784;50.734;7.086;2022-11-02T21:57:38;10.02;79.26
68801;SHT31;55784;50.734;7.086;2022-11-02T22:00:04;9.98;79.20
68801;SHT31;55784;50.734;7.086;2022-11-02T22:02:30;9.99;79.25
68801;SHT31;55784;50.734;7.086;2022-11-02T22:04:55;10.06;79.17
68801;SHT31;55784;50.734;7.086;2022-11-02T22:07:21;10.02;79.12
68801;SHT31;55784;50.734;7.086;2022-11-02T22:09:50;10.04;79.13
68801;SHT31;55784;50.734;7.086;2022-11-02T22:12:24;10.02;79.24
68801;SHT31;55784;50.734;7.086;2022-11-02T22:15:08;10.08;79.04
68801;SHT31;55784;50.734;7.086;2022-11-02T22:17:33;10.06;79.14
68801;SHT31;55784;50.734;7.086;2022-11-02T22:19:59;10.06;79.10
68801;SHT31;55784;50.734;7.086;2022-11-02T22:22:24;10.16;78.91
68801;SHT31;55784;50.734;7.086;2022-11-02T22:24:51;10.16;78.57
68801;SHT31;55784;50.734;7.086;2022-11-02T22:27:16;10.15;78.69
68801;SHT31;55784;50.734;7.086;2022-11-02T22:29:42;10.14;78.69
68801;SHT31;55784;50.734;7.086;2022-11-02T22:32:07;10.15;78.73
68801;SHT31;55784;50.734;7.086;2022-11-02T22:34:32;10.16;78.72
68801;SHT31;55784;50.734;7.086;2022-11-02T22:36:58;10.24;78.59
68801;SHT31;55784;50.734;7.086;2022-11-02T22:39:43;10.22;78.55
68801;SHT31;55784;50.734;7.086;2022-11-02T22:42:08;10.15;78.72
68801;SHT31;55784;50.734;7.086;2022-11-02T22:44:33;10.14;78.84
68801;SHT31;55784;50.734;7.086;2022-11-02T22:46:59;10.18;78.86
68801;SHT31;55784;50.734;7.086;2022-11-02T22:49:24;10.15;78.88
68801;SHT31;55784;50.734;7.086;2022-11-02T22:51:52;10.16;78.95
68801;SHT31;55784;50.734;7.086;2022-11-02T22:54:18;10.14;79.04
68801;SHT31;55784;50.734;7.086;2022-11-02T22:56:45;10.18;79.11
68801;SHT31;55784;50.734;7.086;2022-11-02T22:59:11;10.16;79.11
68801;SHT31;55784;50.734;7.086;2022-11-02T23:01:37;10.21;78.97
68801;SHT31;55784;50.734;7.086;2022-11-02T23:04:03;10.21;78.96
68801;SHT31;55784;50.734;7.086;2022-11-02T23:06:29;10.19;79.00
68801;SHT31;55784;50.734;7.086;2022-11-02T23:08:56;10.22;79.15
68801;SHT31;55784;50.734;7.086;2022-11-02T23:11:26;10.19;79.05
68801;SHT31;55784;50.734;7.086;2022-11-02T23:14:12;10.16;79.14
68801;SHT31;55784;50.734;7.086;2022-11-02T23:16:45;10.09;79.43